createdAt,value
2017-03-25T00:00:57.961Z,36.04
2017-03-25T00:02:08.189Z,36.33
2017-03-25T00:03:18.191Z,36.23
2017-03-25T00:04:28.413Z,36.13
2017-03-25T00:05:38.343Z,36.23
2017-03-25T00:06:48.318Z,36.23
2017-03-25T00:07:57.916Z,36.04
2017-03-25T00:09:07.941Z,36.33
2017-03-25T00:10:18.163Z,36.33
2017-03-25T00:11:28.076Z,36.33
2017-03-25T00:12:38.025Z,36.43
2017-03-25T00:13:47.938Z,36.43
2017-03-25T00:14:57.689Z,36.33
2017-03-25T00:16:07.602Z,36.43
2017-03-25T00:17:17.240Z,36.33
2017-03-25T00:18:26.865Z,36.43
2017-03-25T00:19:36.517Z,36.52
2017-03-25T00:20:46.295Z,36.23
2017-03-25T00:21:56.537Z,35.94
2017-03-25T00:23:06.471Z,36.33
2017-03-25T00:24:16.410Z,36.33
2017-03-25T00:25:26.342Z,36.23
2017-03-25T00:26:36.711Z,36.43
2017-03-25T00:27:46.327Z,36.33
2017-03-25T00:28:56.219Z,36.23
2017-03-25T00:30:06.128Z,36.43
2017-03-25T00:31:16.061Z,36.33
2017-03-25T00:32:26.135Z,36.43
2017-03-25T00:33:36.381Z,36.33
2017-03-25T00:34:46.619Z,36.33
2017-03-25T00:35:56.835Z,36.33
2017-03-25T00:37:06.764Z,36.33
2017-03-25T00:38:16.837Z,36.43
2017-03-25T00:39:32.712Z,36.33
2017-03-25T00:40:42.959Z,36.33
2017-03-25T00:41:53.183Z,36.33
2017-03-25T00:43:03.082Z,36.33
2017-03-25T00:44:13.452Z,35.94
2017-03-25T00:45:23.057Z,36.33
2017-03-25T00:46:32.713Z,36.23
2017-03-25T00:47:42.618Z,36.33
2017-03-25T00:48:51.922Z,36.13
2017-03-25T00:50:01.943Z,36.43
2017-03-25T00:51:11.583Z,35.94
2017-03-25T00:52:21.516Z,36.23
2017-03-25T00:53:31.468Z,36.43
2017-03-25T00:54:41.696Z,36.33
2017-03-25T00:55:51.462Z,36.04
2017-03-25T00:57:01.422Z,36.33
2017-03-25T00:58:11.647Z,36.33
2017-03-25T00:59:21.892Z,36.23
2017-03-25T01:00:31.531Z,36.33
2017-03-25T01:01:42.348Z,36.33
2017-03-25T01:02:52.339Z,35.94
2017-03-25T01:04:02.282Z,36.33
2017-03-25T01:05:11.913Z,36.33
2017-03-25T01:06:21.546Z,36.33
2017-03-25T01:07:31.748Z,36.04
2017-03-25T01:08:41.353Z,36.23
2017-03-25T01:09:50.659Z,36.13
2017-03-25T01:11:00.604Z,36.13
2017-03-25T01:12:09.922Z,36.33
2017-03-25T01:13:20.173Z,35.94
2017-03-25T01:14:29.490Z,36.33
2017-03-25T01:15:39.762Z,36.23
2017-03-25T01:16:50.019Z,36.33
2017-03-25T01:17:59.957Z,35.94
2017-03-25T01:19:09.415Z,36.43
2017-03-25T01:20:18.768Z,36.13
2017-03-25T01:21:29.022Z,35.94
2017-03-25T01:22:38.642Z,36.43
2017-03-25T01:23:47.962Z,36.31
2017-03-25T01:24:57.996Z,36.23
2017-03-25T01:26:07.912Z,35.94
2017-03-25T01:27:17.834Z,36.02
2017-03-25T01:28:28.118Z,35.94
2017-03-25T01:29:38.365Z,36.02
2017-03-25T01:30:48.451Z,36.41
2017-03-25T01:31:58.369Z,36.23
2017-03-25T01:33:08.595Z,36.04
2017-03-25T01:34:18.219Z,36.04
2017-03-25T01:35:28.168Z,36.11
2017-03-25T01:36:38.254Z,36.02
2017-03-25T01:37:48.495Z,36.04
2017-03-25T01:38:58.736Z,36.13
2017-03-25T01:40:08.349Z,36.21
2017-03-25T01:41:17.970Z,36.04
2017-03-25T01:42:28.459Z,36.13
2017-03-25T01:43:38.404Z,36.11
2017-03-25T01:44:48.324Z,36.11
2017-03-25T01:45:58.243Z,35.93
2017-03-25T01:47:07.868Z,35.94
2017-03-25T01:48:17.927Z,36.11
2017-03-25T01:49:28.142Z,36.11
2017-03-25T01:50:38.366Z,35.93
2017-03-25T01:51:48.286Z,36.21
2017-03-25T01:52:58.199Z,36.21
2017-03-25T01:54:08.280Z,36.11
2017-03-25T01:55:18.190Z,36.31
2017-03-25T01:56:28.409Z,36.02
2017-03-25T01:57:38.314Z,36.41
2017-03-25T01:58:48.233Z,36.31
2017-03-25T01:59:58.188Z,36.02
2017-03-25T02:01:07.785Z,36.11
2017-03-25T02:02:17.745Z,35.93
2017-03-25T02:03:27.957Z,36.02
2017-03-25T02:04:38.171Z,36.11
2017-03-25T02:05:48.325Z,36.11
2017-03-25T02:06:57.931Z,36.41
2017-03-25T02:08:07.840Z,36.02
2017-03-25T02:09:18.053Z,36.41
2017-03-25T02:10:27.668Z,36.31
2017-03-25T02:11:37.864Z,36.51
2017-03-25T02:12:48.092Z,36.21
2017-03-25T02:13:57.997Z,36.41
2017-03-25T02:15:08.243Z,36.11
2017-03-25T02:16:17.834Z,36.21
2017-03-25T02:17:27.537Z,36.31
2017-03-25T02:18:37.756Z,36.11
2017-03-25T02:19:47.352Z,36.11
2017-03-25T02:20:56.959Z,36.11
2017-03-25T02:22:06.860Z,36.11
2017-03-25T02:23:16.775Z,36.02
2017-03-25T02:24:25.783Z,36.21
2017-03-25T02:25:35.685Z,35.93
2017-03-25T02:26:45.611Z,35.93
2017-03-25T02:27:55.817Z,36.11
2017-03-25T02:29:05.879Z,36.41
2017-03-25T02:30:16.095Z,36.31
2017-03-25T02:31:26.009Z,36.21
2017-03-25T02:32:36.243Z,36.11
2017-03-25T02:33:46.160Z,36.31
2017-03-25T02:34:56.214Z,36.21
2017-03-25T02:36:05.812Z,36.31
2017-03-25T02:37:15.711Z,36.31
2017-03-25T02:38:25.684Z,36.11
2017-03-25T02:39:35.604Z,36.31
2017-03-25T02:40:45.286Z,36.41
2017-03-25T02:41:55.265Z,36.02
2017-03-25T02:43:05.184Z,36.11
2017-03-25T02:44:15.467Z,36.11
2017-03-25T02:45:25.125Z,36.11
2017-03-25T02:46:34.281Z,36.31
2017-03-25T02:47:44.260Z,36.31
2017-03-25T02:48:54.174Z,36.31
2017-03-25T02:50:03.833Z,36.11
2017-03-25T02:51:13.477Z,36.31
2017-03-25T02:52:22.968Z,36.41
2017-03-25T02:53:32.931Z,36.31
2017-03-25T02:54:42.915Z,36.31
2017-03-25T02:55:52.863Z,36.31
2017-03-25T02:57:03.138Z,36.31
2017-03-25T02:58:13.543Z,36.11
2017-03-25T02:59:23.832Z,36.11
2017-03-25T03:00:33.870Z,36.21
2017-03-25T03:01:43.587Z,36.21
2017-03-25T03:02:53.927Z,36.02
2017-03-25T03:04:04.045Z,36.31
2017-03-25T03:05:13.983Z,36.02
2017-03-25T03:06:24.232Z,36.11
2017-03-25T03:07:34.175Z,36.31
2017-03-25T03:08:43.837Z,36.21
2017-03-25T03:09:54.442Z,36.02
2017-03-25T03:11:04.423Z,36.02
2017-03-25T03:12:14.388Z,35.93
2017-03-25T03:13:24.631Z,36.02
2017-03-25T03:14:34.600Z,36.02
2017-03-25T03:15:44.772Z,36.11
2017-03-25T03:16:54.685Z,36.02
2017-03-25T03:18:04.944Z,35.93
2017-03-25T03:19:15.551Z,36.31
2017-03-25T03:20:25.192Z,36.21
2017-03-25T03:21:35.311Z,36.11
2017-03-25T03:22:45.278Z,35.93
2017-03-25T03:23:55.245Z,36.31
2017-03-25T03:25:05.189Z,35.93
2017-03-25T03:26:14.841Z,36.31
2017-03-25T03:27:25.240Z,36.02
2017-03-25T03:28:35.497Z,36.31
2017-03-25T03:29:45.766Z,36.41
2017-03-25T03:30:56.027Z,36.41
2017-03-25T03:32:06.284Z,36.31
2017-03-25T03:33:15.812Z,36.21
2017-03-25T03:34:26.109Z,36.11
2017-03-25T03:35:36.405Z,36.21
2017-03-25T03:36:46.325Z,35.93
2017-03-25T03:37:56.638Z,36.31
2017-03-25T03:39:06.746Z,36.41
2017-03-25T03:40:16.988Z,36.21
2017-03-25T03:41:26.321Z,36.31
2017-03-25T03:42:36.277Z,36.21
2017-03-25T03:43:46.544Z,36.11
2017-03-25T03:44:57.082Z,36.31
2017-03-25T03:46:07.035Z,36.31
2017-03-25T03:47:16.695Z,36.41
2017-03-25T03:48:26.918Z,36.31
2017-03-25T03:49:37.162Z,36.31
2017-03-25T03:50:47.397Z,36.31
2017-03-25T03:51:57.324Z,36.41
2017-03-25T03:53:07.572Z,36.31
2017-03-25T03:54:17.540Z,36.41
2017-03-25T03:55:27.464Z,36.31
2017-03-25T03:56:37.267Z,36.11
2017-03-25T03:57:47.183Z,36.21
2017-03-25T03:58:56.843Z,35.93
2017-03-25T04:00:07.114Z,36.31
2017-03-25T04:01:17.057Z,36.31
2017-03-25T04:02:27.613Z,36.31
2017-03-25T04:03:37.223Z,36.41
2017-03-25T04:04:47.155Z,36.41
2017-03-25T04:05:57.399Z,36.41
2017-03-25T04:07:07.036Z,36.41
2017-03-25T04:08:17.115Z,36.31
2017-03-25T04:09:27.053Z,36.11
2017-03-25T04:10:36.991Z,36.31
2017-03-25T04:11:46.944Z,36.31
2017-03-25T04:12:56.561Z,36.29
2017-03-25T04:14:06.363Z,36.31
2017-03-25T04:15:16.320Z,36.31
2017-03-25T04:16:26.238Z,36.31
2017-03-25T04:17:36.202Z,36.41
2017-03-25T04:18:46.488Z,36.41
2017-03-25T04:19:57.082Z,36.31
2017-03-25T04:21:07.714Z,36.31
2017-03-25T04:22:17.949Z,36.41
2017-03-25T04:23:27.572Z,36.31
2017-03-25T04:24:37.828Z,36.41
2017-03-25T04:25:48.034Z,36.41
2017-03-25T04:26:57.984Z,36.41
2017-03-25T04:28:07.922Z,36.31
2017-03-25T04:29:17.566Z,36.31
2017-03-25T04:30:27.184Z,36.41
2017-03-25T04:31:37.113Z,36.11
2017-03-25T04:32:47.706Z,36.21
2017-03-25T04:33:57.955Z,36.21
2017-03-25T04:35:07.577Z,36.31
2017-03-25T04:36:17.523Z,36.41
2017-03-25T04:37:28.171Z,36.31
2017-03-25T04:38:37.809Z,36.19
2017-03-25T04:39:48.100Z,36.31
2017-03-25T04:40:58.042Z,36.21
2017-03-25T04:42:07.692Z,36.41
2017-03-25T04:43:18.498Z,36.39
2017-03-25T04:44:28.118Z,36.39
2017-03-25T04:45:38.058Z,36.29
2017-03-25T04:46:48.018Z,36.21
2017-03-25T04:47:57.944Z,36.1
2017-03-25T04:49:07.992Z,36.19
2017-03-25T04:50:17.907Z,36.31
2017-03-25T04:51:27.538Z,36.29
2017-03-25T04:52:37.177Z,36.19
2017-03-25T04:53:46.542Z,36.1
2017-03-25T04:54:57.087Z,36.1
2017-03-25T04:56:07.061Z,36.19
2017-03-25T04:57:17.301Z,36.1
2017-03-25T04:58:27.529Z,36.1
2017-03-25T04:59:37.470Z,36.1
2017-03-25T05:00:48.103Z,36.1
2017-03-25T05:01:58.340Z,36.39
2017-03-25T05:03:07.944Z,36.19
2017-03-25T05:04:17.891Z,36.1
2017-03-25T05:05:27.207Z,36.29
2017-03-25T05:06:37.701Z,36.19
2017-03-25T05:07:48.003Z,36.1
2017-03-25T05:08:58.259Z,36.11
2017-03-25T05:10:07.600Z,36.1
2017-03-25T05:11:17.829Z,36.19
2017-03-25T05:12:28.482Z,36.1
2017-03-25T05:13:38.161Z,36.1
2017-03-25T05:14:48.411Z,36.19
2017-03-25T05:15:58.050Z,36.1
2017-03-25T05:17:07.980Z,36.1
2017-03-25T05:18:19.288Z,36.39
2017-03-25T05:19:29.219Z,36.19
2017-03-25T05:20:39.475Z,36.39
2017-03-25T05:21:49.080Z,36.29
2017-03-25T05:22:58.689Z,36.1
2017-03-25T05:24:09.208Z,36.19
2017-03-25T05:25:19.435Z,36.19
2017-03-25T05:26:29.394Z,36.1
2017-03-25T05:27:39.667Z,36.19
2017-03-25T05:28:49.888Z,36.1
2017-03-25T05:29:59.883Z,36.02
2017-03-25T05:31:09.815Z,36.1
2017-03-25T05:32:20.036Z,36.19
2017-03-25T05:33:30.280Z,36.19
2017-03-25T05:34:39.908Z,36.19
2017-03-25T05:35:50.452Z,36.19
2017-03-25T05:37:00.429Z,36.1
2017-03-25T05:38:10.371Z,36.1
2017-03-25T05:39:20.713Z,36.19
2017-03-25T05:40:30.346Z,36.02
2017-03-25T05:41:40.914Z,36.19
2017-03-25T05:42:51.159Z,36.1
2017-03-25T05:44:00.510Z,35.91
2017-03-25T05:45:09.837Z,35.81
2017-03-25T05:46:20.146Z,35.83
2017-03-25T05:47:30.340Z,35.71
2017-03-25T05:48:40.348Z,35.81
2017-03-25T05:49:50.289Z,35.83
2017-03-25T05:50:59.929Z,36.02
2017-03-25T05:52:09.883Z,36.02
2017-03-25T05:53:19.663Z,35.83
2017-03-25T05:54:29.659Z,35.73
2017-03-25T05:55:39.885Z,35.93
2017-03-25T05:56:50.156Z,36.02
2017-03-25T05:58:00.425Z,36.02
2017-03-25T05:59:10.239Z,35.73
2017-03-25T06:00:19.552Z,35.73
2017-03-25T06:01:28.579Z,35.73
2017-03-25T06:02:38.603Z,35.64
2017-03-25T06:03:48.564Z,35.73
2017-03-25T06:04:58.808Z,35.73
2017-03-25T06:06:08.442Z,35.73
2017-03-25T06:07:17.773Z,35.64
2017-03-25T06:08:27.736Z,35.73
2017-03-25T06:09:38.027Z,35.54
2017-03-25T06:10:48.269Z,35.73
2017-03-25T06:11:57.900Z,35.54
2017-03-25T06:13:07.802Z,35.44
2017-03-25T06:14:17.720Z,35.35
2017-03-25T06:15:27.625Z,35.54
2017-03-25T06:16:37.999Z,35.44
2017-03-25T06:17:47.908Z,35.44
2017-03-25T06:18:58.137Z,35.54
2017-03-25T06:20:07.748Z,35.44
2017-03-25T06:21:17.377Z,35.35
2017-03-25T06:22:27.064Z,35.25
2017-03-25T06:23:37.286Z,35.25
2017-03-25T06:24:47.210Z,35.16
2017-03-25T06:25:57.442Z,35.35
2017-03-25T06:27:07.354Z,35.25
2017-03-25T06:28:17.130Z,35.25
2017-03-25T06:29:27.341Z,35.16
2017-03-25T06:30:37.333Z,35.16
2017-03-25T06:31:47.655Z,35.16
2017-03-25T06:32:58.029Z,35.16
2017-03-25T06:34:08.603Z,35.16
2017-03-25T06:35:18.921Z,35.25
2017-03-25T06:36:28.832Z,35.25
2017-03-25T06:37:38.751Z,35.27
2017-03-25T06:38:49.024Z,35.16
2017-03-25T06:40:00.021Z,34.96
2017-03-25T06:41:09.624Z,34.98
2017-03-25T06:42:19.848Z,35.06
2017-03-25T06:43:29.757Z,35.17
2017-03-25T06:44:39.999Z,35.06
2017-03-25T06:45:51.013Z,35.17
2017-03-25T06:47:01.240Z,35.06
2017-03-25T06:48:11.450Z,35.17
2017-03-25T06:49:21.420Z,35.16
2017-03-25T06:50:31.642Z,35.27
2017-03-25T06:51:42.003Z,35.16
2017-03-25T06:52:52.280Z,35.17
2017-03-25T06:54:02.206Z,35.17
2017-03-25T06:55:12.160Z,34.98
2017-03-25T06:56:21.467Z,35.17
2017-03-25T06:57:32.033Z,35.17
2017-03-25T06:58:41.660Z,34.98
2017-03-25T06:59:51.898Z,34.88
2017-03-25T07:01:01.530Z,34.88
2017-03-25T07:02:11.767Z,34.98
2017-03-25T07:03:21.964Z,35.08
2017-03-25T07:04:31.569Z,34.98
2017-03-25T07:05:41.486Z,34.98
2017-03-25T07:06:51.422Z,34.98
2017-03-25T07:08:00.736Z,35.08
2017-03-25T07:09:10.509Z,35.08
2017-03-25T07:10:20.445Z,34.98
2017-03-25T07:11:30.079Z,35.08
2017-03-25T07:12:40.015Z,35.08
2017-03-25T07:13:49.961Z,34.98
2017-03-25T07:15:00.458Z,34.98
2017-03-25T07:16:10.419Z,35.08
2017-03-25T07:17:20.020Z,34.98
2017-03-25T07:18:29.617Z,34.98
2017-03-25T07:19:38.976Z,35.08
2017-03-25T07:20:48.947Z,35.17
2017-03-25T07:21:58.610Z,35.08
2017-03-25T07:23:08.228Z,35.08
2017-03-25T07:24:18.172Z,35.08
2017-03-25T07:25:28.395Z,34.98
2017-03-25T07:26:37.965Z,35.08
2017-03-25T07:27:48.249Z,35.08
2017-03-25T07:28:58.173Z,35.08
2017-03-25T07:30:08.396Z,34.98
2017-03-25T07:31:18.662Z,35.08
2017-03-25T07:32:28.408Z,35.08
2017-03-25T07:33:38.338Z,35.17
2017-03-25T07:34:48.563Z,35.08
2017-03-25T07:35:58.222Z,35.17
2017-03-25T07:37:08.183Z,35.08
2017-03-25T07:38:18.508Z,35.17
2017-03-25T07:39:28.431Z,35.08
2017-03-25T07:40:38.654Z,35.08
2017-03-25T07:41:48.265Z,35.27
2017-03-25T07:42:58.170Z,35.27
2017-03-25T07:44:08.649Z,34.69
2017-03-25T07:45:18.881Z,34.88
2017-03-25T07:46:28.806Z,34.69
2017-03-25T07:47:39.043Z,34.59
2017-03-25T07:48:49.276Z,34.5
2017-03-25T07:49:59.648Z,34.5
2017-03-25T07:51:09.565Z,34.21
2017-03-25T07:52:19.167Z,34.5
2017-03-25T07:53:28.461Z,34.69
2017-03-25T07:54:38.084Z,34.32
2017-03-25T07:55:47.994Z,34.42
2017-03-25T07:56:57.710Z,34.13
2017-03-25T07:58:07.628Z,34.22
2017-03-25T07:59:17.260Z,34.42
2017-03-25T08:00:26.966Z,34.03
2017-03-25T08:01:37.192Z,34.03
2017-03-25T08:02:47.830Z,34.05
2017-03-25T08:03:58.133Z,33.76
2017-03-25T08:05:08.055Z,33.66
2017-03-25T08:06:18.293Z,33.76
2017-03-25T08:07:28.921Z,33.47
2017-03-25T08:08:38.918Z,33.57
2017-03-25T08:09:48.778Z,33.57
2017-03-25T08:10:59.029Z,33.28
2017-03-25T08:12:09.257Z,33.57
2017-03-25T08:13:19.621Z,33.37
2017-03-25T08:14:29.857Z,33.47
2017-03-25T08:15:39.477Z,33.1
2017-03-25T08:16:49.766Z,33
2017-03-25T08:17:59.690Z,33.29
2017-03-25T08:19:10.207Z,33.39
2017-03-25T08:20:20.145Z,33.29
2017-03-25T08:21:30.042Z,33.48
2017-03-25T08:22:40.268Z,33.39
2017-03-25T08:23:50.501Z,33.29
2017-03-25T08:25:00.450Z,33
2017-03-25T08:26:09.467Z,33.1
2017-03-25T08:27:19.218Z,33.2
2017-03-25T08:28:28.753Z,33
2017-03-25T08:29:39.029Z,33.1
2017-03-25T08:30:49.286Z,32.91
2017-03-25T08:31:59.515Z,33
2017-03-25T08:33:09.432Z,32.92
2017-03-25T08:34:19.684Z,33.12
2017-03-25T08:35:29.905Z,32.92
2017-03-25T08:36:40.169Z,32.54
2017-03-25T08:37:49.771Z,32.54
2017-03-25T08:38:58.453Z,32.64
2017-03-25T08:40:08.360Z,32.64
2017-03-25T08:41:17.984Z,32.64
2017-03-25T08:42:28.254Z,32.64
2017-03-25T08:43:38.208Z,32.64
2017-03-25T08:44:48.212Z,32.44
2017-03-25T08:45:58.156Z,32.54
2017-03-25T08:47:08.389Z,32.34
2017-03-25T08:48:18.956Z,32.07
2017-03-25T08:49:28.881Z,32.36
2017-03-25T08:50:39.096Z,32.36
2017-03-25T08:51:49.322Z,32.17
2017-03-25T08:52:59.238Z,32.36
2017-03-25T08:54:09.293Z,32.26
2017-03-25T08:55:18.306Z,32.17
2017-03-25T08:56:28.526Z,32.07
2017-03-25T08:57:38.457Z,31.98
2017-03-25T08:58:48.693Z,31.98
2017-03-25T08:59:59.285Z,32.17
2017-03-25T09:01:09.212Z,32.07
2017-03-25T09:02:18.517Z,32.07
2017-03-25T09:03:28.439Z,31.99
2017-03-25T09:04:38.359Z,32.09
2017-03-25T09:05:48.885Z,32.18
2017-03-25T09:06:58.180Z,32.18
2017-03-25T09:08:08.410Z,31.99
2017-03-25T09:09:18.643Z,32.09
2017-03-25T09:10:28.568Z,32.09
2017-03-25T09:11:39.102Z,32.18
2017-03-25T09:12:48.714Z,32.18
2017-03-25T09:13:58.942Z,31.89
2017-03-25T09:15:07.939Z,31.99
2017-03-25T09:16:17.866Z,31.99
2017-03-25T09:17:28.041Z,31.89
2017-03-25T09:18:37.966Z,31.89
2017-03-25T09:19:48.192Z,31.7
2017-03-25T09:20:58.107Z,31.71
2017-03-25T09:22:08.332Z,31.71
2017-03-25T09:23:18.491Z,31.62
2017-03-25T09:24:28.400Z,31.62
2017-03-25T09:25:38.315Z,31.81
2017-03-25T09:26:48.236Z,31.62
2017-03-25T09:27:58.458Z,31.62
2017-03-25T09:29:08.825Z,31.62
2017-03-25T09:30:19.069Z,31.71
2017-03-25T09:31:29.299Z,31.71
2017-03-25T09:32:39.222Z,31.52
2017-03-25T09:33:49.141Z,31.62
2017-03-25T09:34:59.712Z,31.62
2017-03-25T09:36:08.711Z,31.62
2017-03-25T09:37:18.659Z,31.71
2017-03-25T09:38:29.261Z,31.63
2017-03-25T09:39:39.488Z,31.71
2017-03-25T09:40:50.001Z,31.62
2017-03-25T09:42:00.235Z,31.71
2017-03-25T09:43:09.855Z,31.63
2017-03-25T09:44:20.071Z,31.71
2017-03-25T09:45:29.970Z,31.83
2017-03-25T09:46:40.493Z,31.81
2017-03-25T09:47:50.699Z,31.81
2017-03-25T09:49:00.920Z,32.01
2017-03-25T09:50:10.839Z,31.93
2017-03-25T09:51:21.063Z,32.12
2017-03-25T09:52:31.571Z,32.1
2017-03-25T09:53:41.178Z,32.1
2017-03-25T09:54:51.392Z,32.1
2017-03-25T09:56:01.612Z,32.2
2017-03-25T09:57:11.530Z,32.2
2017-03-25T09:58:21.755Z,32.2
2017-03-25T09:59:31.662Z,32.39
2017-03-25T10:00:41.870Z,32.49
2017-03-25T10:01:51.470Z,32.49
2017-03-25T10:03:01.069Z,32.49
2017-03-25T10:04:10.791Z,32.68
2017-03-25T10:05:21.025Z,32.68
2017-03-25T10:06:30.927Z,32.97
2017-03-25T10:07:41.157Z,32.97
2017-03-25T10:08:51.090Z,32.97
2017-03-25T10:10:01.257Z,32.87
2017-03-25T10:11:10.866Z,33.15
2017-03-25T10:12:20.480Z,32.96
2017-03-25T10:13:30.388Z,33.05
2017-03-25T10:14:40.603Z,33.05
2017-03-25T10:15:50.045Z,33.15
2017-03-25T10:16:59.670Z,33.34
2017-03-25T10:18:09.281Z,33.54
2017-03-25T10:19:19.501Z,33.05
2017-03-25T10:20:29.715Z,33.34
2017-03-25T10:21:40.361Z,33.54
2017-03-25T10:22:50.271Z,33.63
2017-03-25T10:24:00.182Z,33.73
2017-03-25T10:25:10.407Z,33.62
2017-03-25T10:26:20.636Z,33.44
2017-03-25T10:27:30.654Z,33.72
2017-03-25T10:28:40.561Z,33.72
2017-03-25T10:29:50.462Z,33.91
2017-03-25T10:31:00.368Z,33.91
2017-03-25T10:32:10.276Z,34.1
2017-03-25T10:33:20.151Z,34
2017-03-25T10:34:30.065Z,34.2
2017-03-25T10:35:39.681Z,34.2
2017-03-25T10:36:49.332Z,34
2017-03-25T10:37:59.242Z,34.1
2017-03-25T10:39:09.605Z,34
2017-03-25T10:40:19.521Z,34.39
2017-03-25T10:41:29.426Z,34.48
2017-03-25T10:42:39.639Z,34.39
2017-03-25T10:43:49.556Z,34.29
2017-03-25T10:45:00.122Z,34.39
2017-03-25T10:46:09.737Z,34.39
2017-03-25T10:47:19.036Z,34.28
2017-03-25T10:48:28.646Z,34.18
2017-03-25T10:49:38.573Z,34.29
2017-03-25T10:50:48.672Z,34.2
2017-03-25T10:51:57.961Z,34.29
2017-03-25T10:53:07.859Z,34.18
2017-03-25T10:54:17.784Z,34.39
2017-03-25T10:55:27.083Z,34.29
2017-03-25T10:56:36.851Z,34.47
2017-03-25T10:57:46.776Z,34.38
2017-03-25T10:58:56.068Z,34.38
2017-03-25T11:00:06.279Z,34.56
2017-03-25T11:01:16.199Z,34.56
2017-03-25T11:02:27.176Z,34.47
2017-03-25T11:03:36.465Z,34.38
2017-03-25T11:04:46.075Z,34.38
2017-03-25T11:05:55.984Z,34.38
2017-03-25T11:07:06.203Z,34.56
2017-03-25T11:08:16.565Z,34.47
2017-03-25T11:09:26.790Z,34.38
2017-03-25T11:10:36.071Z,34.66
2017-03-25T11:11:45.382Z,34.18
2017-03-25T11:12:55.602Z,34.76
2017-03-25T11:14:05.465Z,34.56
2017-03-25T11:15:15.086Z,34.18
2017-03-25T11:16:25.003Z,34.38
2017-03-25T11:17:34.923Z,34.56
2017-03-25T11:18:45.134Z,34.76
2017-03-25T11:19:55.161Z,34.76
2017-03-25T11:21:05.079Z,34.28
2017-03-25T11:22:15.035Z,34.66
2017-03-25T11:23:24.950Z,34.76
2017-03-25T11:24:34.849Z,34.66
2017-03-25T11:25:45.011Z,34.76
2017-03-25T11:26:55.228Z,34.47
2017-03-25T11:28:05.464Z,34.76
2017-03-25T11:29:15.401Z,34.47
2017-03-25T11:30:25.009Z,34.38
2017-03-25T11:31:35.619Z,34.66
2017-03-25T11:32:45.240Z,34.47
2017-03-25T11:33:55.460Z,34.56
2017-03-25T11:35:05.692Z,34.66
2017-03-25T11:36:15.603Z,34.38
2017-03-25T11:37:25.363Z,34.28
2017-03-25T11:38:35.636Z,34.66
2017-03-25T11:39:45.259Z,34.84
2017-03-25T11:40:55.496Z,34.38
2017-03-25T11:42:04.520Z,34.28
2017-03-25T11:43:14.536Z,34.18
2017-03-25T11:44:24.462Z,34.28
2017-03-25T11:45:34.365Z,35.05
2017-03-25T11:46:43.974Z,34.76
2017-03-25T11:47:53.278Z,34.45
2017-03-25T11:49:03.143Z,34.36
2017-03-25T11:50:13.372Z,34.56
2017-03-25T11:51:23.592Z,34.55
2017-03-25T11:52:33.838Z,34.47
2017-03-25T11:53:43.781Z,34.45
2017-03-25T11:54:54.250Z,34.76
2017-03-25T11:56:03.854Z,34.28
2017-03-25T11:57:13.761Z,34.38
2017-03-25T11:58:23.730Z,34.76
2017-03-25T11:59:33.945Z,34.38
2017-03-25T12:00:43.396Z,34.38
2017-03-25T12:01:53.003Z,34.38
2017-03-25T12:03:03.211Z,34.56
2017-03-25T12:04:13.134Z,34.66
2017-03-25T12:05:23.381Z,34.28
2017-03-25T12:06:32.817Z,34.47
2017-03-25T12:07:42.432Z,34.56
2017-03-25T12:08:52.654Z,34.56
2017-03-25T12:10:02.566Z,34.47
2017-03-25T12:11:12.180Z,34.38
2017-03-25T12:12:22.427Z,34.56
2017-03-25T12:13:32.043Z,34.08
2017-03-25T12:14:41.679Z,34.56
2017-03-25T12:15:51.605Z,34.38
2017-03-25T12:17:01.196Z,34.47
2017-03-25T12:18:11.376Z,34.47
2017-03-25T12:19:21.287Z,34.47
2017-03-25T12:20:31.526Z,34.38
2017-03-25T12:21:41.142Z,34.38
2017-03-25T12:22:51.569Z,34.47
2017-03-25T12:24:01.811Z,34.28
2017-03-25T12:25:11.428Z,34.38
2017-03-25T12:26:21.338Z,34.47
2017-03-25T12:27:31.573Z,34.56
2017-03-25T12:28:41.259Z,34.28
2017-03-25T12:29:51.537Z,34.56
2017-03-25T12:31:01.524Z,34.56
2017-03-25T12:32:11.743Z,34.28
2017-03-25T12:33:21.662Z,34.47
2017-03-25T12:34:31.882Z,34.38
2017-03-25T12:35:41.593Z,34.38
2017-03-25T12:36:51.799Z,34.28
2017-03-25T12:38:02.016Z,34.47
2017-03-25T12:39:12.236Z,34.28
2017-03-25T12:40:22.153Z,34.18
2017-03-25T12:41:32.165Z,34.08
2017-03-25T12:42:41.763Z,34.56
2017-03-25T12:43:51.676Z,34.56
2017-03-25T12:45:01.892Z,34.66
2017-03-25T12:46:11.495Z,34.66
2017-03-25T12:47:21.654Z,34.47
2017-03-25T12:48:31.874Z,34.76
2017-03-25T12:49:41.180Z,34.76
2017-03-25T12:50:51.092Z,34.38
2017-03-25T12:52:01.031Z,34.47
2017-03-25T12:53:10.720Z,34.66
2017-03-25T12:54:20.651Z,34.66
2017-03-25T12:55:30.878Z,34.47
2017-03-25T12:56:41.101Z,34.47
2017-03-25T12:57:50.715Z,34.66
2017-03-25T12:59:01.275Z,34.56
2017-03-25T13:00:11.508Z,34.66
2017-03-25T13:01:21.106Z,34.66
2017-03-25T13:02:31.013Z,34.38
2017-03-25T13:03:40.940Z,34.38
2017-03-25T13:04:51.316Z,34.66
2017-03-25T13:06:01.538Z,34.38
2017-03-25T13:07:12.146Z,34.38
2017-03-25T13:08:22.366Z,34.38
2017-03-25T13:09:31.670Z,34.38
2017-03-25T13:10:41.415Z,34.38
2017-03-25T13:11:50.732Z,34.76
2017-03-25T13:13:00.657Z,34.18
2017-03-25T13:14:10.569Z,34.28
2017-03-25T13:15:20.790Z,34.86
2017-03-25T13:16:31.108Z,34.45
2017-03-25T13:17:41.030Z,35.05
2017-03-25T13:18:50.637Z,34.38
2017-03-25T13:20:00.255Z,35.03
2017-03-25T13:21:10.162Z,35.24
2017-03-25T13:22:20.229Z,34.28
2017-03-25T13:23:30.139Z,34.55
2017-03-25T13:24:39.789Z,34.94
2017-03-25T13:25:49.689Z,34.47
2017-03-25T13:26:59.646Z,34.45
2017-03-25T13:28:09.850Z,34.26
2017-03-25T13:29:19.773Z,34.26
2017-03-25T13:30:30.011Z,34.55
2017-03-25T13:31:39.612Z,34.84
2017-03-25T13:32:49.524Z,34.36
2017-03-25T13:33:59.297Z,35.03
2017-03-25T13:35:09.211Z,34.36
2017-03-25T13:36:19.425Z,34.26
2017-03-25T13:37:29.359Z,34.55
2017-03-25T13:38:39.271Z,34.36
2017-03-25T13:39:49.740Z,34.74
2017-03-25T13:40:59.339Z,34.26
2017-03-25T13:42:08.931Z,34.26
2017-03-25T13:43:18.839Z,34.26
2017-03-25T13:44:28.773Z,34.26
2017-03-25T13:45:38.954Z,34.36
2017-03-25T13:46:49.168Z,34.26
2017-03-25T13:47:58.796Z,34.36
2017-03-25T13:49:09.017Z,34.36
2017-03-25T13:50:18.622Z,34.36
2017-03-25T13:51:28.772Z,34.36
2017-03-25T13:52:38.061Z,34.64
2017-03-25T13:53:47.666Z,34.84
2017-03-25T13:54:57.273Z,34.74
2017-03-25T13:56:06.867Z,34.36
2017-03-25T13:57:18.578Z,34.64
2017-03-25T13:58:28.807Z,34.36
2017-03-25T13:59:38.723Z,34.55
2017-03-25T14:00:48.971Z,34.64
2017-03-25T14:01:58.873Z,34.64
2017-03-25T14:03:09.353Z,34.64
2017-03-25T14:04:19.568Z,34.26
2017-03-25T14:05:29.174Z,34.26
2017-03-25T14:06:39.382Z,34.55
2017-03-25T14:07:48.990Z,34.64
2017-03-25T14:08:59.051Z,34.64
2017-03-25T14:10:09.278Z,34.64
2017-03-25T14:11:19.178Z,34.45
2017-03-25T14:12:29.398Z,34.36
2017-03-25T14:13:39.005Z,34.45
2017-03-25T14:14:49.321Z,34.16
2017-03-25T14:15:59.225Z,34.45
2017-03-25T14:17:08.827Z,34.36
2017-03-25T14:18:18.433Z,34.45
2017-03-25T14:19:28.056Z,34.45
2017-03-25T14:20:39.026Z,34.36
2017-03-25T14:21:48.934Z,34.45
2017-03-25T14:22:58.847Z,34.45
2017-03-25T14:24:08.773Z,34.55
2017-03-25T14:25:18.390Z,34.55
2017-03-25T14:26:29.355Z,34.26
2017-03-25T14:27:39.018Z,34.45
2017-03-25T14:28:48.627Z,34.45
2017-03-25T14:29:58.239Z,34.36
2017-03-25T14:31:08.177Z,33.97
2017-03-25T14:32:18.415Z,34.55
2017-03-25T14:33:28.633Z,34.45
2017-03-25T14:34:38.548Z,34.55
2017-03-25T14:35:48.461Z,34.45
2017-03-25T14:36:58.105Z,34.16
2017-03-25T14:38:08.683Z,34.45
2017-03-25T14:39:18.599Z,34.16
2017-03-25T14:40:28.530Z,34.26
2017-03-25T14:41:38.443Z,34.26
2017-03-25T14:42:48.668Z,34.26
2017-03-25T14:43:59.221Z,34.36
2017-03-25T14:45:09.439Z,34.06
2017-03-25T14:46:19.373Z,34.26
2017-03-25T14:47:29.298Z,34.26
2017-03-25T14:48:39.209Z,34.26
2017-03-25T14:49:49.749Z,34.16
2017-03-25T14:51:00.120Z,34.26
2017-03-25T14:52:09.728Z,34.26
2017-03-25T14:53:19.654Z,34.26
2017-03-25T14:54:29.572Z,34.16
2017-03-25T14:55:39.110Z,34.26
2017-03-25T14:56:49.045Z,34.06
2017-03-25T14:57:58.679Z,34.36
2017-03-25T14:59:08.716Z,34.16
2017-03-25T15:00:18.953Z,34.26
2017-03-25T15:01:29.026Z,34.26
2017-03-25T15:02:39.250Z,34.26
2017-03-25T15:03:49.473Z,34.16